createdAt,value
2018-09-12T00:03:48.729Z,100901.45
2018-09-12T00:08:46.119Z,100893.95
2018-09-12T00:13:43.515Z,100889.08
2018-09-12T00:18:40.867Z,100884.72
2018-09-12T00:23:38.279Z,100870.66
2018-09-12T00:28:35.678Z,100868.83
2018-09-12T00:33:33.250Z,100870.75
2018-09-12T00:38:30.616Z,100869.48
2018-09-12T00:43:28.012Z,100870.16
2018-09-12T00:48:25.371Z,100864.62
2018-09-12T00:53:22.757Z,100863.41
2018-09-12T00:58:20.156Z,100850.78
2018-09-12T01:03:17.536Z,100851.44
2018-09-12T01:08:14.909Z,100847.85
2018-09-12T01:13:12.368Z,100848.55
2018-09-12T01:18:14.284Z,100851.17
2018-09-12T01:23:11.661Z,100854.42
2018-09-12T01:28:09.043Z,100847.52
2018-09-12T01:33:06.429Z,100848.61
2018-09-12T01:38:03.837Z,100852.59
2018-09-12T01:43:01.203Z,100841.16
2018-09-12T01:47:58.631Z,100851.87
2018-09-12T01:52:55.996Z,100844.11
2018-09-12T01:57:53.388Z,100840.27
2018-09-12T02:02:50.904Z,100835.66
2018-09-12T02:07:48.278Z,100834.03
2018-09-12T02:12:45.711Z,100826.04
2018-09-12T02:17:43.090Z,100822.75
2018-09-12T02:22:40.511Z,100822.88
2018-09-12T02:27:37.892Z,100826.25
2018-09-12T02:32:35.280Z,100820.47
2018-09-12T02:37:32.716Z,100813.97
2018-09-12T02:42:30.204Z,100816.29
2018-09-12T02:47:33.353Z,100817.69
2018-09-12T02:52:30.719Z,100817.57
2018-09-12T02:57:28.104Z,100819.13
2018-09-12T03:02:25.627Z,100819.54
2018-09-12T03:07:22.991Z,100813.37
2018-09-12T03:12:20.383Z,100808.91
2018-09-12T03:17:17.759Z,100814.33
2018-09-12T03:22:15.147Z,100804.50
2018-09-12T03:27:12.560Z,100801.58
2018-09-12T03:32:09.935Z,100787.13
2018-09-12T03:37:07.303Z,100794.45
2018-09-12T03:42:04.719Z,100783.78
2018-09-12T03:47:02.148Z,100782.70
2018-09-12T03:51:59.543Z,100763.09
2018-09-12T03:56:56.943Z,100767.22
2018-09-12T04:01:54.331Z,100764.14
2018-09-12T04:06:51.850Z,100769.16
2018-09-12T04:11:49.254Z,100767.66
2018-09-12T04:16:46.714Z,100764.74
2018-09-12T04:21:44.019Z,100776.13
2018-09-12T04:26:41.496Z,100774.22
2018-09-12T04:31:38.872Z,100777.19
2018-09-12T04:36:36.312Z,100776.12
2018-09-12T04:41:33.767Z,100777.16
2018-09-12T04:46:31.167Z,100776.26
2018-09-12T04:51:28.627Z,100787.23
2018-09-12T04:56:25.994Z,100786.48
2018-09-12T05:01:23.387Z,100797.61
2018-09-12T05:06:20.764Z,100804.27
2018-09-12T05:11:18.164Z,100806.67
2018-09-12T05:16:15.563Z,100810.55
2018-09-12T05:21:14.557Z,100806.19
2018-09-12T05:26:11.977Z,100805.44
2018-09-12T05:31:09.379Z,100806.23
2018-09-12T05:36:06.799Z,100806.59
2018-09-12T05:41:04.263Z,100809.00
2018-09-12T05:46:01.652Z,100813.89
2018-09-12T05:50:59.060Z,100817.45
2018-09-12T05:55:56.472Z,100812.02
2018-09-12T06:00:53.874Z,100822.88
2018-09-12T06:05:51.281Z,100818.50
2018-09-12T06:10:48.755Z,100815.23
2018-09-12T06:15:46.176Z,100817.89
2018-09-12T06:20:43.591Z,100818.58
2018-09-12T06:25:40.982Z,100824.04
2018-09-12T06:30:38.417Z,100818.12
2018-09-12T06:35:36.949Z,100821.13
2018-09-12T06:40:34.359Z,100822.63
2018-09-12T06:45:31.876Z,100831.72
2018-09-12T06:50:29.281Z,100837.89
2018-09-12T06:55:26.752Z,100836.10
2018-09-12T07:00:24.161Z,100845.22
2018-09-12T07:05:21.596Z,100838.39
2018-09-12T07:10:19.108Z,100836.02
2018-09-12T07:15:16.568Z,100830.50
2018-09-12T07:20:14.022Z,100825.19
2018-09-12T07:25:11.443Z,100831.58
2018-09-12T07:30:08.906Z,100833.74
2018-09-12T07:35:06.372Z,100831.20
2018-09-12T07:40:04.866Z,100829.95
2018-09-12T07:45:02.350Z,100834.06
2018-09-12T07:49:59.751Z,100842.11
2018-09-12T07:54:57.215Z,100835.16
2018-09-12T07:59:54.666Z,100839.19
2018-09-12T08:04:52.070Z,100841.83
2018-09-12T08:09:52.705Z,100831.78
2018-09-12T08:14:50.088Z,100834.13
2018-09-12T08:19:47.459Z,100838.19
2018-09-12T08:24:45.003Z,100830.27
2018-09-12T08:29:42.387Z,100830.10
2018-09-12T08:34:39.798Z,100833.52
2018-09-12T08:39:47.653Z,100829.56
2018-09-12T08:44:45.051Z,100833.61
2018-09-12T08:49:42.433Z,100843.21
2018-09-12T08:54:39.822Z,100828.08
2018-09-12T08:59:37.223Z,100824.14
2018-09-12T09:04:34.723Z,100824.25
2018-09-12T09:09:40.227Z,100836.36
2018-09-12T09:14:37.624Z,100833.64
2018-09-12T09:19:35.030Z,100830.18
2018-09-12T09:24:32.438Z,100831.78
2018-09-12T09:29:29.857Z,100824.16
2018-09-12T09:34:27.292Z,100835.48
2018-09-12T09:39:32.157Z,100825.04
2018-09-12T09:44:29.691Z,100825.28
2018-09-12T09:49:27.120Z,100830.68
2018-09-12T09:54:24.518Z,100841.59
2018-09-12T09:59:21.927Z,100840.09
2018-09-12T10:04:22.195Z,100834.44
2018-09-12T10:09:34.767Z,100831.27
2018-09-12T10:14:32.290Z,100840.87
2018-09-12T10:19:29.728Z,100836.66
2018-09-12T10:24:27.175Z,100840.33
2018-09-12T10:29:24.543Z,100856.20
2018-09-12T10:34:21.974Z,100867.70
2018-09-12T10:39:26.333Z,100858.11
2018-09-12T10:44:23.787Z,100852.22
2018-09-12T10:49:21.171Z,100857.61
2018-09-12T10:54:18.571Z,100860.03
2018-09-12T10:59:16.051Z,100856.73
2018-09-12T11:04:13.579Z,100857.77
2018-09-12T11:09:14.547Z,100859.42
2018-09-12T11:14:11.947Z,100860.47
2018-09-12T11:19:09.332Z,100865.53
2018-09-12T11:24:06.863Z,100869.00
2018-09-12T11:29:04.234Z,100866.51
2018-09-12T11:34:01.631Z,100870.50
2018-09-12T11:38:59.015Z,100885.37
2018-09-12T11:43:56.378Z,100891.45
2018-09-12T11:48:53.743Z,100895.30
2018-09-12T11:53:51.138Z,100905.16
2018-09-12T11:58:48.543Z,100913.92
2018-09-12T12:03:45.938Z,100925.96
2018-09-12T12:08:43.565Z,100919.87
2018-09-12T12:13:40.963Z,100921.65
2018-09-12T12:18:38.365Z,100929.84
2018-09-12T12:23:38.140Z,100941.44
2018-09-12T12:28:35.645Z,100937.23
2018-09-12T12:33:33.067Z,100946.93
2018-09-12T12:38:30.479Z,100949.09
2018-09-12T12:43:27.873Z,100944.92
2018-09-12T12:48:25.292Z,100943.43
2018-09-12T12:53:22.699Z,100961.20
2018-09-12T12:58:20.095Z,100973.39
2018-09-12T13:03:17.491Z,100965.77
2018-09-12T13:08:14.879Z,100973.48
2018-09-12T13:13:12.368Z,100974.62
2018-09-12T13:18:09.810Z,100980.27
2018-09-12T13:23:07.279Z,100993.23
2018-09-12T13:28:04.675Z,101004.64
2018-09-12T13:33:02.128Z,101014.55
2018-09-12T13:37:59.721Z,101027.94
2018-09-12T13:42:57.133Z,101015.77
2018-09-12T13:47:54.531Z,101011.05
2018-09-12T13:52:51.944Z,101010.97
2018-09-12T13:57:49.335Z,101015.92
2018-09-12T14:02:46.738Z,101022.06
2018-09-12T14:07:44.167Z,101023.97
2018-09-12T14:12:41.607Z,101024.56
2018-09-12T14:17:39.062Z,101023.00
2018-09-12T14:22:36.539Z,101030.61
2018-09-12T14:27:36.773Z,101029.19
2018-09-12T14:32:39.179Z,101036.76
2018-09-12T14:37:38.744Z,101037.94
2018-09-12T14:42:36.300Z,101021.42
2018-09-12T14:47:33.698Z,101039.53
2018-09-12T14:52:31.358Z,101038.55
2018-09-12T14:57:29.991Z,101042.91
2018-09-12T15:02:27.366Z,101038.19
2018-09-12T15:07:24.747Z,101049.17
2018-09-12T15:12:23.511Z,101052.72
2018-09-12T15:17:20.980Z,101064.08
2018-09-12T15:22:18.591Z,101063.72
2018-09-12T15:27:16.024Z,101071.80
2018-09-12T15:32:13.408Z,101079.32
2018-09-12T15:37:10.852Z,101089.91
2018-09-12T15:42:08.240Z,101093.19
2018-09-12T15:47:05.704Z,101088.84
2018-09-12T15:52:03.042Z,101091.86
2018-09-12T15:57:00.451Z,101093.14
2018-09-12T16:01:57.850Z,101081.01
2018-09-12T16:06:55.291Z,101074.73
2018-09-12T16:11:52.692Z,101070.32
2018-09-12T16:16:50.113Z,101076.63
2018-09-12T16:21:47.528Z,101076.73
2018-09-12T16:26:44.927Z,101072.92
2018-09-12T16:31:42.351Z,101069.39
2018-09-12T16:36:39.787Z,101077.83
2018-09-12T16:41:37.198Z,101086.27
2018-09-12T16:46:34.806Z,101091.67
2018-09-12T16:51:32.280Z,101093.31
2018-09-12T16:56:30.034Z,101097.29
2018-09-12T17:01:27.358Z,101099.45
2018-09-12T17:06:24.776Z,101098.59
2018-09-12T17:11:22.215Z,101108.55
2018-09-12T17:16:19.598Z,101109.19
2018-09-12T17:21:17.819Z,101107.11
2018-09-12T17:26:15.203Z,101096.81
2018-09-12T17:31:12.579Z,101103.62
2018-09-12T17:36:09.991Z,101107.95
2018-09-12T17:41:07.715Z,101109.36
2018-09-12T17:46:05.386Z,101121.11
2018-09-12T17:51:02.773Z,101127.08
2018-09-12T17:56:00.204Z,101126.75
2018-09-12T18:00:57.657Z,101128.23
2018-09-12T18:05:55.966Z,101123.16
2018-09-12T18:10:53.427Z,101126.38
2018-09-12T18:15:50.802Z,101134.64
2018-09-12T18:20:48.183Z,101139.27
2018-09-12T18:25:45.524Z,101131.56
2018-09-12T18:30:43.043Z,101135.85
2018-09-12T18:35:40.435Z,101143.28
2018-09-12T18:40:37.846Z,101142.47
2018-09-12T18:45:35.206Z,101151.02
2018-09-12T18:50:32.580Z,101146.14
2018-09-12T18:55:29.954Z,101144.88
2018-09-12T19:00:27.367Z,101137.91
2018-09-12T19:05:24.704Z,101146.59
2018-09-12T19:10:23.119Z,101132.73
2018-09-12T19:15:20.671Z,101133.64
2018-09-12T19:20:18.063Z,101141.80
2018-09-12T19:25:15.459Z,101142.45
2018-09-12T19:30:12.848Z,101137.23
2018-09-12T19:35:10.227Z,101141.34
2018-09-12T19:40:08.700Z,101166.84
2018-09-12T19:45:06.099Z,101161.88
2018-09-12T19:50:03.617Z,101165.70
2018-09-12T19:55:01.003Z,101177.88
2018-09-12T19:59:58.379Z,101163.33
2018-09-12T20:04:56.314Z,101159.34
2018-09-12T20:09:56.908Z,101168.76
2018-09-12T20:14:58.010Z,101177.67
2018-09-12T20:19:59.553Z,101174.06
2018-09-12T20:24:57.039Z,101179.18
2018-09-12T20:29:54.485Z,101176.31
2018-09-12T20:34:51.839Z,101180.11
2018-09-12T20:39:57.825Z,101171.95
2018-09-12T20:44:55.203Z,101174.67
2018-09-12T20:49:52.645Z,101173.27
2018-09-12T20:54:50.015Z,101170.98
2018-09-12T20:59:47.404Z,101188.55
2018-09-12T21:04:44.894Z,101185.08
2018-09-12T21:09:46.466Z,101165.64
2018-09-12T21:14:43.869Z,101158.59
2018-09-12T21:19:41.256Z,101148.80
2018-09-12T21:24:38.639Z,101155.03
2018-09-12T21:29:36.020Z,101159.13
2018-09-12T21:34:33.798Z,101157.38
2018-09-12T21:39:43.557Z,101143.48
2018-09-12T21:44:43.154Z,101143.02
2018-09-12T21:49:42.588Z,101168.38
2018-09-12T21:54:40.903Z,101172.70
2018-09-12T21:59:38.354Z,101172.28
2018-09-12T22:04:35.736Z,101175.41
2018-09-12T22:09:41.653Z,101178.80
2018-09-12T22:14:39.331Z,101167.98
2018-09-12T22:19:37.395Z,101165.11
2018-09-12T22:24:34.886Z,101164.30
2018-09-12T22:29:32.885Z,101165.52
2018-09-12T22:34:30.687Z,101162.13
2018-09-12T22:39:31.143Z,101166.52
2018-09-12T22:44:28.905Z,101152.63
2018-09-12T22:49:26.941Z,101159.97
2018-09-12T22:54:24.667Z,101150.07
2018-09-12T22:59:22.203Z,101154.80
2018-09-12T23:04:19.578Z,101147.33
2018-09-12T23:09:21.554Z,101157.02
2018-09-12T23:14:18.981Z,101145.56
2018-09-12T23:19:16.330Z,101148.33
2018-09-12T23:24:13.975Z,101144.34
2018-09-12T23:29:11.614Z,101149.35
2018-09-12T23:34:08.976Z,101145.59
2018-09-12T23:39:11.827Z,101139.05
2018-09-12T23:44:09.955Z,101139.88
2018-09-12T23:49:08.147Z,101147.03
2018-09-12T23:54:05.990Z,101150.73
2018-09-12T23:59:03.371Z,101151.76
